sensor_id;sensor_type;location;lat;lon;timestamp;P1;durP1;ratioP1;P2;durP2;ratioP2
63714;SDS011;49858;48.956;9.076;2024-01-15T00:00:33;32.25;;;11.80;;
63714;SDS011;49858;48.956;9.076;2024-01-15T00:03:01;37.25;;;12.00;;
63714;SDS011;49858;48.956;9.076;2024-01-15T00:05:29;34.60;;;14.27;;
63714;SDS011;49858;48.956;9.076;2024-01-15T00:07:57;29.52;;;9.32;;
63714;SDS011;49858;48.956;9.076;2024-01-15T00:10:24;32.67;;;10.65;;
63714;SDS011;49858;48.956;9.076;2024-01-15T00:12:54;24.55;;;8.68;;
63714;SDS011;49858;48.956;9.076;2024-01-15T00:15:22;31.88;;;11.20;;
63714;SDS011;49858;48.956;9.076;2024-01-15T00:17:50;16.27;;;7.38;;
63714;SDS011;49858;48.956;9.076;2024-01-15T00:20:18;34.72;;;10.70;;
63714;SDS011;49858;48.956;9.076;2024-01-15T00:22:46;32.70;;;12.70;;
63714;SDS011;49858;48.956;9.076;2024-01-15T00:25:14;27.92;;;9.80;;
63714;SDS011;49858;48.956;9.076;2024-01-15T00:27:42;28.77;;;9.75;;
63714;SDS011;49858;48.956;9.076;2024-01-15T00:30:11;34.25;;;15.00;;
63714;SDS011;49858;48.956;9.076;2024-01-15T00:32:40;36.35;;;13.43;;
63714;SDS011;49858;48.956;9.076;2024-01-15T00:35:08;27.10;;;7.07;;
63714;SDS011;49858;48.956;9.076;2024-01-15T00:37:37;39.83;;;16.38;;
63714;SDS011;49858;48.956;9.076;2024-01-15T00:40:05;34.20;;;13.70;;
63714;SDS011;49858;48.956;9.076;2024-01-15T00:42:34;41.70;;;13.60;;
63714;SDS011;49858;48.956;9.076;2024-01-15T00:45:03;32.17;;;13.15;;
63714;SDS011;49858;48.956;9.076;2024-01-15T00:47:33;43.85;;;18.02;;
63714;SDS011;49858;48.956;9.076;2024-01-15T00:50:01;20.75;;;9.10;;
63714;SDS011;49858;48.956;9.076;2024-01-15T00:52:29;47.70;;;13.45;;
63714;SDS011;49858;48.956;9.076;2024-01-15T00:54:57;34.50;;;12.63;;
63714;SDS011;49858;48.956;9.076;2024-01-15T00:57:25;38.65;;;14.63;;
63714;SDS011;49858;48.956;9.076;2024-01-15T00:59:53;42.28;;;17.40;;
63714;SDS011;49858;48.956;9.076;2024-01-15T01:02:21;47.33;;;21.33;;
63714;SDS011;49858;48.956;9.076;2024-01-15T01:04:50;41.45;;;14.80;;
63714;SDS011;49858;48.956;9.076;2024-01-15T01:07:17;43.60;;;19.08;;
63714;SDS011;49858;48.956;9.076;2024-01-15T01:09:45;40.25;;;15.95;;
63714;SDS011;49858;48.956;9.076;2024-01-15T01:12:14;41.00;;;16.75;;
63714;SDS011;49858;48.956;9.076;2024-01-15T01:14:42;48.53;;;17.27;;
63714;SDS011;49858;48.956;9.076;2024-01-15T01:17:10;45.15;;;17.65;;
63714;SDS011;49858;48.956;9.076;2024-01-15T01:19:38;30.55;;;11.75;;
63714;SDS011;49858;48.956;9.076;2024-01-15T01:22:07;40.30;;;16.10;;
63714;SDS011;49858;48.956;9.076;2024-01-15T01:24:35;41.92;;;16.85;;
63714;SDS011;49858;48.956;9.076;2024-01-15T01:27:03;51.25;;;17.88;;
63714;SDS011;49858;48.956;9.076;2024-01-15T01:29:31;41.35;;;17.00;;
63714;SDS011;49858;48.956;9.076;2024-01-15T01:31:59;41.80;;;15.98;;
63714;SDS011;49858;48.956;9.076;2024-01-15T01:34:27;45.60;;;18.77;;
63714;SDS011;49858;48.956;9.076;2024-01-15T01:37:00;30.42;;;11.85;;
63714;SDS011;49858;48.956;9.076;2024-01-15T01:39:29;32.53;;;15.82;;
63714;SDS011;49858;48.956;9.076;2024-01-15T01:41:57;44.03;;;18.73;;
63714;SDS011;49858;48.956;9.076;2024-01-15T01:44:24;44.45;;;19.05;;
63714;SDS011;49858;48.956;9.076;2024-01-15T01:46:52;42.70;;;18.65;;
63714;SDS011;49858;48.956;9.076;2024-01-15T01:49:22;48.25;;;20.17;;
63714;SDS011;49858;48.956;9.076;2024-01-15T01:51:52;35.50;;;13.20;;
63714;SDS011;49858;48.956;9.076;2024-01-15T01:54:20;38.58;;;15.80;;
63714;SDS011;49858;48.956;9.076;2024-01-15T01:56:49;40.83;;;13.73;;
63714;SDS011;49858;48.956;9.076;2024-01-15T01:59:18;32.58;;;14.55;;
63714;SDS011;49858;48.956;9.076;2024-01-15T02:01:46;40.58;;;16.88;;
63714;SDS011;49858;48.956;9.076;2024-01-15T02:04:19;34.65;;;11.75;;
63714;SDS011;49858;48.956;9.076;2024-01-15T02:06:47;33.47;;;13.25;;
63714;SDS011;49858;48.956;9.076;2024-01-15T02:09:16;35.80;;;13.88;;
63714;SDS011;49858;48.956;9.076;2024-01-15T02:11:45;34.72;;;15.18;;
63714;SDS011;49858;48.956;9.076;2024-01-15T02:14:15;29.42;;;10.90;;
63714;SDS011;49858;48.956;9.076;2024-01-15T02:16:44;31.40;;;12.40;;
63714;SDS011;49858;48.956;9.076;2024-01-15T02:19:14;32.40;;;12.40;;
63714;SDS011;49858;48.956;9.076;2024-01-15T02:21:44;33.05;;;11.25;;
63714;SDS011;49858;48.956;9.076;2024-01-15T02:24:13;34.20;;;12.70;;
63714;SDS011;49858;48.956;9.076;2024-01-15T02:26:41;39.33;;;14.57;;
63714;SDS011;49858;48.956;9.076;2024-01-15T02:29:10;32.75;;;12.77;;
63714;SDS011;49858;48.956;9.076;2024-01-15T02:31:38;37.05;;;16.23;;
63714;SDS011;49858;48.956;9.076;2024-01-15T02:34:06;41.65;;;16.85;;
63714;SDS011;49858;48.956;9.076;2024-01-15T02:36:34;41.38;;;15.05;;
63714;SDS011;49858;48.956;9.076;2024-01-15T02:39:02;38.15;;;14.48;;
63714;SDS011;49858;48.956;9.076;2024-01-15T02:41:32;30.52;;;10.85;;
63714;SDS011;49858;48.956;9.076;2024-01-15T02:43:59;36.60;;;13.00;;
63714;SDS011;49858;48.956;9.076;2024-01-15T02:46:27;28.05;;;11.85;;
63714;SDS011;49858;48.956;9.076;2024-01-15T02:48:55;33.58;;;13.45;;
63714;SDS011;49858;48.956;9.076;2024-01-15T02:51:23;36.80;;;15.50;;
63714;SDS011;49858;48.956;9.076;2024-01-15T02:53:54;25.77;;;12.55;;
63714;SDS011;49858;48.956;9.076;2024-01-15T02:56:22;33.30;;;13.88;;
63714;SDS011;49858;48.956;9.076;2024-01-15T02:58:51;38.55;;;17.70;;
63714;SDS011;49858;48.956;9.076;2024-01-15T03:01:19;39.28;;;17.70;;
63714;SDS011;49858;48.956;9.076;2024-01-15T03:03:47;40.25;;;15.73;;
63714;SDS011;49858;48.956;9.076;2024-01-15T03:06:15;36.47;;;14.82;;
63714;SDS011;49858;48.956;9.076;2024-01-15T03:08:43;38.45;;;15.95;;
63714;SDS011;49858;48.956;9.076;2024-01-15T03:11:10;39.08;;;15.70;;
63714;SDS011;49858;48.956;9.076;2024-01-15T03:13:38;29.23;;;12.73;;
63714;SDS011;49858;48.956;9.076;2024-01-15T03:16:07;36.95;;;14.88;;
63714;SDS011;49858;48.956;9.076;2024-01-15T03:18:35;32.50;;;13.10;;
63714;SDS011;49858;48.956;9.076;2024-01-15T03:21:04;34.03;;;12.77;;
63714;SDS011;49858;48.956;9.076;2024-01-15T03:23:32;39.67;;;13.73;;
63714;SDS011;49858;48.956;9.076;2024-01-15T03:26:00;29.90;;;12.85;;
63714;SDS011;49858;48.956;9.076;2024-01-15T03:28:28;32.00;;;12.25;;
63714;SDS011;49858;48.956;9.076;2024-01-15T03:30:56;40.95;;;17.17;;
63714;SDS011;49858;48.956;9.076;2024-01-15T03:33:26;34.50;;;12.23;;
63714;SDS011;49858;48.956;9.076;2024-01-15T03:35:54;42.65;;;16.85;;
63714;SDS011;49858;48.956;9.076;2024-01-15T03:38:22;38.70;;;15.10;;
63714;SDS011;49858;48.956;9.076;2024-01-15T03:40:50;29.05;;;12.55;;
63714;SDS011;49858;48.956;9.076;2024-01-15T03:43:19;32.15;;;15.20;;
63714;SDS011;49858;48.956;9.076;2024-01-15T03:45:47;30.27;;;12.65;;
63714;SDS011;49858;48.956;9.076;2024-01-15T03:48:15;35.42;;;16.23;;
63714;SDS011;49858;48.956;9.076;2024-01-15T03:50:44;17.92;;;7.50;;
63714;SDS011;49858;48.956;9.076;2024-01-15T03:53:12;35.55;;;14.65;;
63714;SDS011;49858;48.956;9.076;2024-01-15T03:55:40;26.63;;;9.75;;
63714;SDS011;49858;48.956;9.076;2024-01-15T03:58:08;35.95;;;16.65;;
63714;SDS011;49858;48.956;9.076;2024-01-15T04:00:35;25.73;;;10.85;;
63714;SDS011;49858;48.956;9.076;2024-01-15T04:03:04;38.50;;;15.65;;
63714;SDS011;49858;48.956;9.076;2024-01-15T04:05:33;21.42;;;9.52;;
63714;SDS011;49858;48.956;9.076;2024-01-15T04:08:02;34.17;;;15.30;;
63714;SDS011;49858;48.956;9.076;2024-01-15T04:10:30;21.20;;;9.45;;
63714;SDS011;49858;48.956;9.076;2024-01-15T04:12:58;31.10;;;14.02;;
63714;SDS011;49858;48.956;9.076;2024-01-15T04:15:28;22.30;;;9.75;;
63714;SDS011;49858;48.956;9.076;2024-01-15T04:17:55;29.45;;;13.10;;
63714;SDS011;49858;48.956;9.076;2024-01-15T04:20:27;20.60;;;8.25;;
63714;SDS011;49858;48.956;9.076;2024-01-15T04:22:55;17.30;;;7.70;;
63714;SDS011;49858;48.956;9.076;2024-01-15T04:25:24;25.60;;;8.70;;
63714;SDS011;49858;48.956;9.076;2024-01-15T04:27:52;21.58;;;9.27;;
63714;SDS011;49858;48.956;9.076;2024-01-15T04:30:20;9.25;;;3.92;;
63714;SDS011;49858;48.956;9.076;2024-01-15T04:32:48;11.20;;;4.80;;
63714;SDS011;49858;48.956;9.076;2024-01-15T04:35:16;16.65;;;7.97;;
63714;SDS011;49858;48.956;9.076;2024-01-15T04:37:44;20.33;;;10.25;;
63714;SDS011;49858;48.956;9.076;2024-01-15T04:40:12;16.10;;;8.48;;
63714;SDS011;49858;48.956;9.076;2024-01-15T04:42:42;27.80;;;12.60;;
63714;SDS011;49858;48.956;9.076;2024-01-15T04:45:12;27.20;;;10.30;;
63714;SDS011;49858;48.956;9.076;2024-01-15T04:47:40;28.55;;;12.23;;
63714;SDS011;49858;48.956;9.076;2024-01-15T04:50:08;22.23;;;10.70;;
63714;SDS011;49858;48.956;9.076;2024-01-15T04:52:36;27.83;;;12.63;;
63714;SDS011;49858;48.956;9.076;2024-01-15T04:55:05;11.02;;;5.03;;
63714;SDS011;49858;48.956;9.076;2024-01-15T04:57:32;13.23;;;5.60;;
63714;SDS011;49858;48.956;9.076;2024-01-15T05:00:02;22.38;;;8.75;;
63714;SDS011;49858;48.956;9.076;2024-01-15T05:02:31;5.57;;;3.47;;
63714;SDS011;49858;48.956;9.076;2024-01-15T05:05:02;13.68;;;7.55;;
63714;SDS011;49858;48.956;9.076;2024-01-15T05:07:30;10.48;;;5.07;;
63714;SDS011;49858;48.956;9.076;2024-01-15T05:09:58;20.90;;;8.48;;
63714;SDS011;49858;48.956;9.076;2024-01-15T05:12:26;26.02;;;11.60;;
63714;SDS011;49858;48.956;9.076;2024-01-15T05:14:54;18.60;;;9.32;;
63714;SDS011;49858;48.956;9.076;2024-01-15T05:17:23;16.33;;;8.27;;
63714;SDS011;49858;48.956;9.076;2024-01-15T05:19:51;18.60;;;8.18;;
63714;SDS011;49858;48.956;9.076;2024-01-15T05:22:19;14.20;;;6.05;;
63714;SDS011;49858;48.956;9.076;2024-01-15T05:24:47;17.15;;;6.78;;
63714;SDS011;49858;48.956;9.076;2024-01-15T05:27:15;19.80;;;9.88;;
63714;SDS011;49858;48.956;9.076;2024-01-15T05:29:43;28.95;;;10.52;;
63714;SDS011;49858;48.956;9.076;2024-01-15T05:32:11;19.65;;;9.65;;
63714;SDS011;49858;48.956;9.076;2024-01-15T05:34:40;24.65;;;10.38;;
63714;SDS011;49858;48.956;9.076;2024-01-15T05:37:10;25.02;;;10.80;;
63714;SDS011;49858;48.956;9.076;2024-01-15T05:39:38;18.05;;;7.80;;
63714;SDS011;49858;48.956;9.076;2024-01-15T05:42:06;25.75;;;9.52;;
63714;SDS011;49858;48.956;9.076;2024-01-15T05:44:34;23.85;;;10.77;;
63714;SDS011;49858;48.956;9.076;2024-01-15T05:47:02;24.17;;;11.77;;
63714;SDS011;49858;48.956;9.076;2024-01-15T05:49:30;18.17;;;8.73;;
63714;SDS011;49858;48.956;9.076;2024-01-15T05:51:59;14.73;;;6.68;;
63714;SDS011;49858;48.956;9.076;2024-01-15T05:54:27;17.15;;;7.85;;
63714;SDS011;49858;48.956;9.076;2024-01-15T05:56:55;12.02;;;6.63;;
63714;SDS011;49858;48.956;9.076;2024-01-15T05:59:23;7.53;;;3.95;;
63714;SDS011;49858;48.956;9.076;2024-01-15T06:01:52;11.75;;;5.35;;
63714;SDS011;49858;48.956;9.076;2024-01-15T06:04:19;15.18;;;7.47;;
63714;SDS011;49858;48.956;9.076;2024-01-15T06:06:47;17.90;;;7.38;;
63714;SDS011;49858;48.956;9.076;2024-01-15T06:09:19;19.63;;;6.45;;
63714;SDS011;49858;48.956;9.076;2024-01-15T06:11:47;10.30;;;5.72;;
63714;SDS011;49858;48.956;9.076;2024-01-15T06:14:15;10.50;;;3.92;;
63714;SDS011;49858;48.956;9.076;2024-01-15T06:16:43;11.95;;;5.13;;
63714;SDS011;49858;48.956;9.076;2024-01-15T06:19:11;9.43;;;4.10;;
63714;SDS011;49858;48.956;9.076;2024-01-15T06:21:39;8.70;;;5.00;;
63714;SDS011;49858;48.956;9.076;2024-01-15T06:24:07;7.25;;;4.65;;
63714;SDS011;49858;48.956;9.076;2024-01-15T06:26:37;10.48;;;5.05;;
63714;SDS011;49858;48.956;9.076;2024-01-15T06:29:05;6.40;;;3.67;;
63714;SDS011;49858;48.956;9.076;2024-01-15T06:31:34;5.65;;;3.50;;
63714;SDS011;49858;48.956;9.076;2024-01-15T06:34:02;8.43;;;3.70;;
63714;SDS011;49858;48.956;9.076;2024-01-15T06:36:31;9.18;;;4.68;;
63714;SDS011;49858;48.956;9.076;2024-01-15T06:38:58;12.15;;;5.63;;
63714;SDS011;49858;48.956;9.076;2024-01-15T06:41:26;13.15;;;5.40;;
63714;SDS011;49858;48.956;9.076;2024-01-15T06:43:55;11.95;;;5.53;;
63714;SDS011;49858;48.956;9.076;2024-01-15T06:46:23;9.45;;;5.13;;
63714;SDS011;49858;48.956;9.076;2024-01-15T06:48:51;6.05;;;3.55;;
63714;SDS011;49858;48.956;9.076;2024-01-15T06:51:19;5.57;;;4.15;;
63714;SDS011;49858;48.956;9.076;2024-01-15T06:53:47;5.20;;;3.00;;
63714;SDS011;49858;48.956;9.076;2024-01-15T06:56:15;7.20;;;3.13;;
63714;SDS011;49858;48.956;9.076;2024-01-15T06:58:46;5.05;;;3.53;;
63714;SDS011;49858;48.956;9.076;2024-01-15T07:01:15;11.15;;;3.10;;
63714;SDS011;49858;48.956;9.076;2024-01-15T07:03:43;7.78;;;4.35;;
63714;SDS011;49858;48.956;9.076;2024-01-15T07:06:11;3.72;;;2.92;;
63714;SDS011;49858;48.956;9.076;2024-01-15T07:08:39;4.57;;;2.50;;
63714;SDS011;49858;48.956;9.076;2024-01-15T07:11:07;1.85;;;1.27;;
63714;SDS011;49858;48.956;9.076;2024-01-15T07:13:36;16.63;;;4.32;;
63714;SDS011;49858;48.956;9.076;2024-01-15T07:16:04;11.68;;;3.08;;
63714;SDS011;49858;48.956;9.076;2024-01-15T07:18:33;6.95;;;3.53;;
63714;SDS011;49858;48.956;9.076;2024-01-15T07:21:04;8.50;;;4.68;;
63714;SDS011;49858;48.956;9.076;2024-01-15T07:23:31;2.20;;;2.10;;
63714;SDS011;49858;48.956;9.076;2024-01-15T07:25:59;4.75;;;3.90;;
63714;SDS011;49858;48.956;9.076;2024-01-15T07:28:28;8.10;;;4.00;;
63714;SDS011;49858;48.956;9.076;2024-01-15T07:30:56;1.52;;;1.40;;
63714;SDS011;49858;48.956;9.076;2024-01-15T07:33:25;15.77;;;7.13;;
63714;SDS011;49858;48.956;9.076;2024-01-15T07:35:54;6.35;;;3.05;;
63714;SDS011;49858;48.956;9.076;2024-01-15T07:38:23;7.05;;;3.88;;
63714;SDS011;49858;48.956;9.076;2024-01-15T07:40:51;15.45;;;5.07;;
63714;SDS011;49858;48.956;9.076;2024-01-15T07:43:20;3.63;;;2.53;;
63714;SDS011;49858;48.956;9.076;2024-01-15T07:45:49;11.48;;;4.70;;
63714;SDS011;49858;48.956;9.076;2024-01-15T07:48:17;8.68;;;4.72;;
63714;SDS011;49858;48.956;9.076;2024-01-15T07:50:45;17.13;;;6.47;;
63714;SDS011;49858;48.956;9.076;2024-01-15T07:53:14;13.80;;;5.65;;
63714;SDS011;49858;48.956;9.076;2024-01-15T07:55:42;11.70;;;4.85;;
63714;SDS011;49858;48.956;9.076;2024-01-15T07:58:12;8.95;;;4.97;;
63714;SDS011;49858;48.956;9.076;2024-01-15T08:00:42;10.55;;;5.47;;
63714;SDS011;49858;48.956;9.076;2024-01-15T08:03:11;12.50;;;3.20;;
63714;SDS011;49858;48.956;9.076;2024-01-15T08:05:39;10.32;;;5.45;;
63714;SDS011;49858;48.956;9.076;2024-01-15T08:08:07;14.18;;;5.82;;
63714;SDS011;49858;48.956;9.076;2024-01-15T08:10:37;15.85;;;6.35;;
63714;SDS011;49858;48.956;9.076;2024-01-15T08:13:04;6.47;;;3.03;;
63714;SDS011;49858;48.956;9.076;2024-01-15T08:15:34;12.15;;;5.65;;
63714;SDS011;49858;48.956;9.076;2024-01-15T08:18:02;7.50;;;3.40;;
63714;SDS011;49858;48.956;9.076;2024-01-15T08:20:30;8.18;;;3.70;;
63714;SDS011;49858;48.956;9.076;2024-01-15T08:22:58;5.28;;;3.72;;
63714;SDS011;49858;48.956;9.076;2024-01-15T08:25:26;9.48;;;3.70;;
63714;SDS011;49858;48.956;9.076;2024-01-15T08:27:55;2.58;;;2.38;;
63714;SDS011;49858;48.956;9.076;2024-01-15T08:30:23;5.00;;;2.83;;
63714;SDS011;49858;48.956;9.076;2024-01-15T08:32:54;7.25;;;3.58;;
63714;SDS011;49858;48.956;9.076;2024-01-15T08:35:25;10.98;;;4.90;;
63714;SDS011;49858;48.956;9.076;2024-01-15T08:37:53;9.60;;;3.83;;
63714;SDS011;49858;48.956;9.076;2024-01-15T08:40:22;2.75;;;1.80;;
63714;SDS011;49858;48.956;9.076;2024-01-15T08:42:49;5.25;;;3.50;;
63714;SDS011;49858;48.956;9.076;2024-01-15T08:45:19;7.63;;;4.70;;
63714;SDS011;49858;48.956;9.076;2024-01-15T08:47:48;6.78;;;3.97;;
63714;SDS011;49858;48.956;9.076;2024-01-15T08:50:16;8.50;;;4.28;;
63714;SDS011;49858;48.956;9.076;2024-01-15T08:52:44;9.25;;;4.50;;
63714;SDS011;49858;48.956;9.076;2024-01-15T08:55:12;4.18;;;1.77;;
63714;SDS011;49858;48.956;9.076;2024-01-15T08:57:40;7.93;;;4.03;;
63714;SDS011;49858;48.956;9.076;2024-01-15T09:00:09;9.40;;;4.80;;
63714;SDS011;49858;48.956;9.076;2024-01-15T09:02:39;2.13;;;1.83;;
63714;SDS011;49858;48.956;9.076;2024-01-15T09:05:07;5.35;;;2.50;;
63714;SDS011;49858;48.956;9.076;2024-01-15T09:07:35;10.43;;;4.35;;
63714;SDS011;49858;48.956;9.076;2024-01-15T09:10:04;9.43;;;4.65;;
63714;SDS011;49858;48.956;9.076;2024-01-15T09:12:35;11.10;;;5.53;;
63714;SDS011;49858;48.956;9.076;2024-01-15T09:15:03;5.63;;;2.25;;
63714;SDS011;49858;48.956;9.076;2024-01-15T09:17:32;3.05;;;1.73;;
63714;SDS011;49858;48.956;9.076;2024-01-15T09:20:01;9.65;;;4.82;;
63714;SDS011;49858;48.956;9.076;2024-01-15T09:22:31;6.85;;;4.53;;
63714;SDS011;49858;48.956;9.076;2024-01-15T09:24:58;8.07;;;4.50;;
63714;SDS011;49858;48.956;9.076;2024-01-15T09:27:27;7.95;;;3.03;;
63714;SDS011;49858;48.956;9.076;2024-01-15T09:29:55;13.93;;;5.78;;
63714;SDS011;49858;48.956;9.076;2024-01-15T09:32:22;8.45;;;4.07;;
63714;SDS011;49858;48.956;9.076;2024-01-15T09:34:50;13.25;;;6.53;;
63714;SDS011;49858;48.956;9.076;2024-01-15T09:37:20;12.73;;;6.57;;
63714;SDS011;49858;48.956;9.076;2024-01-15T09:40:07;11.30;;;4.55;;
63714;SDS011;49858;48.956;9.076;2024-01-15T09:42:40;8.85;;;4.90;;
63714;SDS011;49858;48.956;9.076;2024-01-15T09:45:09;12.95;;;6.30;;
63714;SDS011;49858;48.956;9.076;2024-01-15T09:47:38;7.07;;;3.45;;
63714;SDS011;49858;48.956;9.076;2024-01-15T09:50:10;11.48;;;5.53;;
63714;SDS011;49858;48.956;9.076;2024-01-15T09:52:40;7.22;;;3.72;;
63714;SDS011;49858;48.956;9.076;2024-01-15T09:55:09;5.43;;;3.10;;
63714;SDS011;49858;48.956;9.076;2024-01-15T09:57:38;8.25;;;4.65;;
63714;SDS011;49858;48.956;9.076;2024-01-15T10:00:07;13.32;;;5.20;;
63714;SDS011;49858;48.956;9.076;2024-01-15T10:02:38;11.63;;;4.90;;
63714;SDS011;49858;48.956;9.076;2024-01-15T10:05:07;9.98;;;4.07;;
63714;SDS011;49858;48.956;9.076;2024-01-15T10:07:35;6.35;;;3.53;;
63714;SDS011;49858;48.956;9.076;2024-01-15T10:10:09;12.48;;;5.47;;
63714;SDS011;49858;48.956;9.076;2024-01-15T10:12:41;6.88;;;4.35;;
63714;SDS011;49858;48.956;9.076;2024-01-15T10:15:10;9.13;;;4.95;;
63714;SDS011;49858;48.956;9.076;2024-01-15T10:17:39;12.68;;;3.70;;
63714;SDS011;49858;48.956;9.076;2024-01-15T10:20:08;11.00;;;3.97;;
63714;SDS011;49858;48.956;9.076;2024-01-15T10:22:39;5.63;;;2.75;;
63714;SDS011;49858;48.956;9.076;2024-01-15T10:25:11;7.63;;;4.30;;
63714;SDS011;49858;48.956;9.076;2024-01-15T10:27:40;11.60;;;4.88;;
63714;SDS011;49858;48.956;9.076;2024-01-15T10:30:09;10.38;;;5.03;;
63714;SDS011;49858;48.956;9.076;2024-01-15T10:32:37;8.75;;;4.45;;
63714;SDS011;49858;48.956;9.076;2024-01-15T10:35:07;10.25;;;3.97;;
63714;SDS011;49858;48.956;9.076;2024-01-15T10:37:35;6.32;;;3.25;;
63714;SDS011;49858;48.956;9.076;2024-01-15T10:40:03;8.45;;;4.00;;
63714;SDS011;49858;48.956;9.076;2024-01-15T10:42:34;8.07;;;2.83;;
63714;SDS011;49858;48.956;9.076;2024-01-15T10:45:02;9.90;;;4.68;;
63714;SDS011;49858;48.956;9.076;2024-01-15T10:47:33;13.95;;;5.72;;
63714;SDS011;49858;48.956;9.076;2024-01-15T10:50:02;10.30;;;4.47;;
63714;SDS011;49858;48.956;9.076;2024-01-15T10:52:33;2.65;;;1.73;;
63714;SDS011;49858;48.956;9.076;2024-01-15T10:55:01;11.57;;;4.68;;
63714;SDS011;49858;48.956;9.076;2024-01-15T10:57:39;7.53;;;4.70;;
63714;SDS011;49858;48.956;9.076;2024-01-15T11:00:08;8.63;;;4.93;;
63714;SDS011;49858;48.956;9.076;2024-01-15T11:02:41;8.75;;;5.15;;
63714;SDS011;49858;48.956;9.076;2024-01-15T11:05:11;13.65;;;5.43;;
63714;SDS011;49858;48.956;9.076;2024-01-15T11:07:39;13.38;;;6.40;;
63714;SDS011;49858;48.956;9.076;2024-01-15T11:10:08;12.23;;;6.90;;
63714;SDS011;49858;48.956;9.076;2024-01-15T11:13:09;12.82;;;5.68;;
63714;SDS011;49858;48.956;9.076;2024-01-15T11:15:57;10.13;;;4.78;;
63714;SDS011;49858;48.956;9.076;2024-01-15T11:18:26;3.50;;;2.63;;
63714;SDS011;49858;48.956;9.076;2024-01-15T11:23:50;7.77;;;4.37;;
63714;SDS011;49858;48.956;9.076;2024-01-15T11:26:27;13.20;;;6.35;;
63714;SDS011;49858;48.956;9.076;2024-01-15T11:28:59;9.73;;;5.20;;
63714;SDS011;49858;48.956;9.076;2024-01-15T11:31:29;5.30;;;3.60;;
63714;SDS011;49858;48.956;9.076;2024-01-15T11:34:18;5.88;;;4.20;;
63714;SDS011;49858;48.956;9.076;2024-01-15T11:37:01;11.50;;;4.93;;
63714;SDS011;49858;48.956;9.076;2024-01-15T11:39:39;8.63;;;4.25;;
63714;SDS011;49858;48.956;9.076;2024-01-15T11:42:09;7.88;;;3.88;;
63714;SDS011;49858;48.956;9.076;2024-01-15T11:44:40;10.18;;;5.32;;
63714;SDS011;49858;48.956;9.076;2024-01-15T11:47:08;8.45;;;4.63;;
63714;SDS011;49858;48.956;9.076;2024-01-15T11:52:31;1.27;;;1.10;;
63714;SDS011;49858;48.956;9.076;2024-01-15T11:55:01;12.32;;;6.60;;
63714;SDS011;49858;48.956;9.076;2024-01-15T11:57:39;11.10;;;4.22;;
63714;SDS011;49858;48.956;9.076;2024-01-15T12:00:11;8.52;;;3.90;;
63714;SDS011;49858;48.956;9.076;2024-01-15T12:02:41;5.28;;;3.42;;
63714;SDS011;49858;48.956;9.076;2024-01-15T12:05:09;11.43;;;6.13;;
63714;SDS011;49858;48.956;9.076;2024-01-15T12:07:39;11.48;;;5.50;;
63714;SDS011;49858;48.956;9.076;2024-01-15T12:10:10;14.02;;;6.85;;
63714;SDS011;49858;48.956;9.076;2024-01-15T12:12:46;10.80;;;5.25;;
63714;SDS011;49858;48.956;9.076;2024-01-15T12:15:21;10.35;;;4.72;;
63714;SDS011;49858;48.956;9.076;2024-01-15T12:17:49;7.65;;;4.35;;
63714;SDS011;49858;48.956;9.076;2024-01-15T12:20:18;10.95;;;4.38;;
63714;SDS011;49858;48.956;9.076;2024-01-15T12:22:46;10.45;;;5.70;;
63714;SDS011;49858;48.956;9.076;2024-01-15T12:25:26;11.95;;;5.68;;
63714;SDS011;49858;48.956;9.076;2024-01-15T12:27:55;13.48;;;5.78;;
63714;SDS011;49858;48.956;9.076;2024-01-15T12:30:25;13.85;;;6.28;;
63714;SDS011;49858;48.956;9.076;2024-01-15T12:32:53;17.90;;;8.13;;
63714;SDS011;49858;48.956;9.076;2024-01-15T12:35:23;17.25;;;7.03;;
63714;SDS011;49858;48.956;9.076;2024-01-15T12:37:53;16.52;;;9.45;;
63714;SDS011;49858;48.956;9.076;2024-01-15T12:40:21;13.85;;;6.97;;
63714;SDS011;49858;48.956;9.076;2024-01-15T12:42:51;10.60;;;5.40;;
63714;SDS011;49858;48.956;9.076;2024-01-15T12:45:19;17.65;;;9.23;;
63714;SDS011;49858;48.956;9.076;2024-01-15T12:47:48;13.77;;;6.95;;
63714;SDS011;49858;48.956;9.076;2024-01-15T12:50:17;19.50;;;8.85;;
63714;SDS011;49858;48.956;9.076;2024-01-15T12:52:47;13.15;;;6.90;;
63714;SDS011;49858;48.956;9.076;2024-01-15T12:55:15;13.98;;;8.30;;
63714;SDS011;49858;48.956;9.076;2024-01-15T12:57:43;13.10;;;6.45;;
63714;SDS011;49858;48.956;9.076;2024-01-15T13:00:12;19.45;;;7.65;;
63714;SDS011;49858;48.956;9.076;2024-01-15T13:02:41;11.98;;;6.88;;
63714;SDS011;49858;48.956;9.076;2024-01-15T13:05:12;15.20;;;7.07;;
63714;SDS011;49858;48.956;9.076;2024-01-15T13:07:41;15.20;;;8.00;;
63714;SDS011;49858;48.956;9.076;2024-01-15T13:10:10;23.48;;;7.03;;
63714;SDS011;49858;48.956;9.076;2024-01-15T13:12:39;17.08;;;8.32;;
63714;SDS011;49858;48.956;9.076;2024-01-15T13:15:08;20.30;;;10.13;;
63714;SDS011;49858;48.956;9.076;2024-01-15T13:17:40;15.82;;;8.18;;
63714;SDS011;49858;48.956;9.076;2024-01-15T13:20:11;16.00;;;7.30;;
63714;SDS011;49858;48.956;9.076;2024-01-15T13:22:40;8.60;;;3.13;;
63714;SDS011;49858;48.956;9.076;2024-01-15T13:25:11;15.68;;;6.95;;
63714;SDS011;49858;48.956;9.076;2024-01-15T13:27:39;23.08;;;10.73;;
63714;SDS011;49858;48.956;9.076;2024-01-15T13:30:09;13.38;;;7.45;;
63714;SDS011;49858;48.956;9.076;2024-01-15T13:32:39;20.55;;;8.77;;
63714;SDS011;49858;48.956;9.076;2024-01-15T13:35:07;3.60;;;2.38;;
63714;SDS011;49858;48.956;9.076;2024-01-15T13:37:41;17.60;;;9.80;;
63714;SDS011;49858;48.956;9.076;2024-01-15T13:40:09;15.48;;;7.30;;
63714;SDS011;49858;48.956;9.076;2024-01-15T13:42:43;18.35;;;11.05;;
63714;SDS011;49858;48.956;9.076;2024-01-15T13:45:11;7.22;;;3.83;;
63714;SDS011;49858;48.956;9.076;2024-01-15T13:47:41;13.00;;;7.30;;
63714;SDS011;49858;48.956;9.076;2024-01-15T13:50:09;13.25;;;5.47;;
63714;SDS011;49858;48.956;9.076;2024-01-15T13:52:37;12.25;;;5.30;;
63714;SDS011;49858;48.956;9.076;2024-01-15T13:55:08;8.63;;;4.85;;
63714;SDS011;49858;48.956;9.076;2024-01-15T13:57:37;23.40;;;10.30;;
63714;SDS011;49858;48.956;9.076;2024-01-15T14:00:06;17.38;;;9.18;;
63714;SDS011;49858;48.956;9.076;2024-01-15T14:02:38;11.63;;;5.25;;
63714;SDS011;49858;48.956;9.076;2024-01-15T14:05:06;10.02;;;6.72;;
63714;SDS011;49858;48.956;9.076;2024-01-15T14:07:34;11.98;;;5.60;;
63714;SDS011;49858;48.956;9.076;2024-01-15T14:10:02;17.77;;;9.77;;
63714;SDS011;49858;48.956;9.076;2024-01-15T14:12:35;25.02;;;11.93;;
63714;SDS011;49858;48.956;9.076;2024-01-15T14:15:03;16.52;;;9.20;;
63714;SDS011;49858;48.956;9.076;2024-01-15T14:17:32;13.57;;;6.45;;
63714;SDS011;49858;48.956;9.076;2024-01-15T14:20:00;10.27;;;5.07;;
63714;SDS011;49858;48.956;9.076;2024-01-15T14:22:31;19.45;;;9.90;;
63714;SDS011;49858;48.956;9.076;2024-01-15T14:24:59;12.60;;;7.32;;
63714;SDS011;49858;48.956;9.076;2024-01-15T14:27:27;13.80;;;7.65;;
63714;SDS011;49858;48.956;9.076;2024-01-15T14:29:57;15.95;;;7.78;;
63714;SDS011;49858;48.956;9.076;2024-01-15T14:32:25;15.50;;;8.90;;
63714;SDS011;49858;48.956;9.076;2024-01-15T14:34:53;8.05;;;4.82;;
63714;SDS011;49858;48.956;9.076;2024-01-15T14:37:23;11.07;;;6.05;;
63714;SDS011;49858;48.956;9.076;2024-01-15T14:39:51;13.23;;;7.30;;
63714;SDS011;49858;48.956;9.076;2024-01-15T14:42:19;18.45;;;9.05;;
63714;SDS011;49858;48.956;9.076;2024-01-15T14:44:50;16.15;;;9.20;;
63714;SDS011;49858;48.956;9.076;2024-01-15T14:47:19;8.65;;;5.10;;
63714;SDS011;49858;48.956;9.076;2024-01-15T14:49:51;15.20;;;7.47;;